WEATHER DATA

YESTERDAY
Time Temp. Dewp. Hum. Wind dir Wind speed Wind gust Bar.
00:02 1.3 -0.7 86 282 0.8 1.7 1031.2
00:11 1.3 -0.7 86 234 0.6 1.4 1031.1
00:21 1.2 -0.8 86 270 0.3 0.8 1031.1
00:32 1.2 -0.6 87 288 0.6 1.1 1031.2
00:42 1.2 -0.6 87 225 0.3 1.1 1031.3
00:52 1.1 -0.7 87 270 0.3 1.1 1031.3
01:01 1.1 -0.7 87 135 0.3 0.8 1031.5
01:12 1 -0.8 87 218 0.3 1.1 1031.5
01:22 0.9 -0.9 87 318 0.3 0.8 1031.3
01:32 0.8 -1 87 321 0.3 0.8 1031.5
01:42 0.7 -1.1 87 327 0.6 1.1 1031.3
01:52 0.5 -1.4 86 346 0.6 1.1 1031.5
02:02 0.4 -1.3 87 270 0.3 0.8 1031.5
02:12 0.2 -1.5 87 229 0.3 0.6 1031.3
02:23 0.1 -1.6 87 270 0.3 0.8 1031.3
02:33 -0.1 -1.8 87 270 0.3 0.8 1031.2
02:42 -0.2 -1.7 88 287 0.6 1.1 1031.1
02:53 -0.4 -1.9 88 315 0.3 0.6 1031
03:03 -0.5 -1.9 89 221 0.3 0.8 1031
03:13 -0.6 -2.1 88 270 0.3 0.8 1031
03:23 -0.7 -2.1 89 231 0.6 0.8 1030.9
03:33 -0.8 -2.2 89 240 0.3 0.8 1030.9
03:43 -0.9 -2.2 90 270 0.6 1.4 1030.8
03:53 -0.9 -2 91 244 0.8 1.7 1030.8
04:03 -0.9 -2.2 90 270 0.6 0.8 1030.7
04:14 -1 -2.3 90 230 0.6 0.8 1030.8
04:23 -1.1 -2.2 91 225 0.6 1.1 1030.7
04:33 -1.1 -2.2 91 239 0.6 1.1 1030.8
04:44 -1.2 -2.3 91 238 0.3 1.1 1030.8
04:54 -1.2 -2.2 92 233 0.6 1.1 1030.8
05:04 -1.3 -2.3 92 249 0.8 1.4 1030.8
05:14 -1.3 -2.3 92 227 0.6 1.4 1030.8
05:24 -1.4 -2.4 92 234 0.6 1.1 1030.8
05:34 -1.4 -2.4 92 234 0.6 1.1 1030.8
05:44 -1.4 -2.3 93 218 0.8 1.9 1030.8
05:55 -1.5 -2.4 93 225 0.3 0.8 1030.9
06:04 -1.6 -2.5 93 217 0.3 1.1 1030.8
06:14 -1.6 -2.3 94 230 0.8 1.4 1030.8
06:24 -1.6 -2.3 94 270 0.3 0.8 1030.8
06:35 -1.6 -2.5 93 240 0.3 0.8 1030.9
06:45 -1.7 -2.6 93 221 0.3 1.1 1030.8
06:54 -1.7 -2.4 94 213 0.6 1.4 1030.9
07:05 -1.7 -2.4 94 236 1.1 2.5 1030.8
07:15 -1.7 -2.4 94 240 1.4 1.9 1030.9
07:25 -1.7 -2.4 94 234 0.8 1.4 1030.9
07:35 -1.6 -2.2 95 230 0.8 1.4 1030.9
07:45 -1.5 -2.2 94 249 3.6 5 1031
07:55 -1.4 -2 95 284 3.3 5.3 1031
08:05 -1.1 -1.6 96 295 3.6 6.7 1031
08:16 -0.8 -1.3 96 1 3.1 4.7 1031
08:25 -0.6 -1.2 95 354 3.6 7.2 1031.1
08:35 -0.2 -0.7 96 3 3.9 7.5 1031.2
08:45 0.2 -0.4 95 353 3.9 8.6 1031.1
08:56 0.5 -0.2 95 313 2.8 8.6 1031.1
09:06 1.3 0.7 96 349 2.5 6.4 1031.1
09:15 2 1.3 95 65 2.8 6.9 1031.1
09:26 2.8 1.9 94 97 3.1 6.7 1031.1
09:36 3.6 2.7 94 90 3.9 7.2 1031
09:40 4.2 3 92 90 3.6 12.2 1031
09:50 5.1 3.1 87 90 3.6 8.3 1031
10:06 5.8 3.8 87 87 3.6 11.9 1030.9
10:16 6.2 3.9 85 84 4.2 7.8 1030.9
10:25 6.6 4.3 85 79 3.6 9.4 1030.9
10:36 7.2 4.7 84 90 3.1 5 1030.8
10:46 7.9 4.8 81 68 3.6 8.3 1030.8
10:56 8.5 5.4 81 66 3.1 6.1 1030.7
11:06 9.7 5.5 75 93 2.8 8.1 1030.6
11:16 10.2 5.8 74 61 3.3 6.7 1030.6
11:26 10.9 6.3 73 115 3.1 5.6 1030.6
11:36 11.4 5.7 68 330 2.8 5.6 1030.5
11:47 11.8 6.3 69 48 3.9 6.4 1030.5
11:57 13 4.9 58 50 3.1 5 1030.4
12:05 13.8 4.7 54 121 3.3 6.4 1030.4
12:15 14.7 5.2 53 4 5.3 8.6 1030.3
12:25 15.2 4.3 48 90 3.9 7.2 1030.2
12:35 15.5 4.5 48 84 3.9 7.2 1030.1
12:45 15.9 4 45 2.5 5.6 1030.1
12:57 16.2 0.7 35 205 2.5 8.9 1030
13:06 16.2 3.9 44 225 4.2 7.5 1029.9
13:16 16.1 2.9 41 229 3.6 7.5 1029.9
13:27 16.3 3 41 81 4.4 8.1 1029.9
13:37 16.3 2.3 39 93 4.2 7.5 1029.8
13:41 16.2 1.9 38 103 4.4 11.4 1029.8
13:51 16.1 1.4 37 102 4.2 7.5 1029.7
14:01 16 1.3 37 104 4.7 8.3 1029.7
14:14 15.8 2.2 40 223 1.9 7.2 1029.6
14:23 15.7 0.3 35 232 3.1 5.3 1029.6
14:33 15.3 1.8 40 234 0.8 1.7 1029.7
14:44 15.4 0.4 36 144 0.8 1.9 1029.5
14:54 15.3 -0.1 35 168 1.1 1.9 1029.5
15:04 15.2 1 38 35 0.8 1.7 1029.4
15:14 15.1 1.3 39 110 1.1 2.2 1029.4
15:24 14.8 1 39 23 0.8 2.2 1029.3
15:34 14.5 1.1 40 243 2.5 5 1029.3
15:44 14.4 1 40 234 1.7 5 1029
15:54 14.4 -0.4 36 190 1.7 3.6 1029.1
16:04 14.5 0.4 38 198 2.2 5.3 1029.1
16:14 14.9 0.7 38 182 1.9 4.7 1029.1
16:24 14.6 -0.6 35 213 1.4 3.6 1029.1
16:29 14.4 -0.4 36 225 2.8 7.5 1029.1
16:39 14.2 -0.2 37 240 3.1 5 1029
16:49 13.8 -0.2 38 238 2.5 5 1029.1
16:59 13.5 -0.2 39 255 0.8 1.7 1029
17:10 13.3 -2.7 32 213 1.4 2.8 1029.1
17:20 13.1 -1.4 36 216 1.1 1.9 1029.1
17:29 12.8 -0.4 40 256 1.1 2.2 1029.1
17:40 12.3 -1.1 39 275 1.7 2.2 1029.3
17:50 11.8 -0.3 43 270 1.9 2.8 1029.3
18:00 11.2 -0.8 43 270 1.9 2.8 1029.3
18:09 10.6 -1 44 276 1.9 2.5 1029.3
18:20 9.9 -1.8 43 280 2.2 3.3 1029.4
18:30 9.3 -2.6 42 270 1.9 3.1 1029.5
18:40 8.8 -2.2 45 270 1.9 3.1 1029.6
18:50 8.4 -2 47 270 1.7 3.3 1029.6
19:01 8.1 -2.5 46 275 1.7 3.1 1029.7
19:10 7.8 -3 45 270 1.9 3.1 1029.7
19:20 7.5 -2.7 47 270 1.7 2.8 1029.6
19:31 7.3 -2.6 48 263 1.7 2.8 1029.7
19:41 7 -3.6 45 254 1.9 3.6 1029.6
19:51 6.7 -3.9 45 270 1.7 3.1 1029.7
20:01 6.7 -4.7 42 251 2.2 3.6 1029.7
20:11 6.6 -5.9 38 248 1.9 5.3 1029.8
20:21 6.5 -4.9 42 242 1.4 2.5 1029.7
20:31 6.3 -5 42 255 1.7 2.8 1029.7
20:42 6.1 -4.9 43 252 1.4 2.5 1029.7
20:51 6 -5 43 270 1.4 2.5 1029.7
21:01 5.8 -5.4 42 279 1.4 2.5 1029.7
21:11 5.7 -5.2 43 252 1.1 2.2 1029.7
21:22 5.6 -5.3 43 253 1.4 2.5 1029.6
21:32 5.4 -6.3 40 270 1.1 2.8 1029.6
21:42 5.6 -6.4 39 149 1.4 4.4 1029.6
21:52 5.6 -6.4 39 181 1.4 3.3 1029.5
22:02 5.7 -5.8 41 207 1.1 2.2 1029.4
22:12 5.5 -5.9 41 202 1.1 2.2 1029.4
22:22 5.3 -6.4 40 196 0.8 2.2 1029.4
22:32 5.2 -5.9 42 270 0.6 1.4 1029.4
22:42 4.7 -5.3 46 318 1.4 2.8 1029.4
22:52 4.4 -5 48 270 1.4 3.1 1029.4
23:03 4.1 -5 49 270 1.7 3.3 1029.4
23:13 3.7 -5.1 50 276 1.7 3.3 1029.3
23:22 3.4 -5.3 50 270 1.4 2.8 1029.1
23:32 3.2 -5.1 52 264 1.4 2.5 1029
23:43 2.8 -4.9 54 270 1.7 3.1 1028.9
23:53 2.5 -5.2 54 270 1.4 2.8 1028.8

DAY STATISTIC

2021-03-02
TEMPERATURE
AVERAGE
6.0
HIGH
16.3
13:27
LOW
-1.7
06:45
PRESSURE
AVERAGE
1030.2
HIGH
1031.5
01:01
LOW
1028.8
23:53
DEWPOINT
AVERAGE
-0.9
HIGH
6.3
11:26
LOW
-6.4
21:42
HUMIDITY
AVERAGE
65
HIGH
96
08:05
LOW
32
17:10
WIND SPEED
AVERAGE
1.8
HIGH
5.3
12:15
WIND GUST
AVERAGE
3.7
HIGH
12.2
09:40
WIND DIRECTION
PREVAILING
W
33.3%
N
4.9
NE
4.9
E
12.5
SE
3.5
S
4.9
SW
29.9
W
33.3
NW
5.6
TEMPERATURE (°C)
LOW
-1.7
HIGH
16.3
AVERAGE
6.0
PRESSURE (hpa)
LOW
1028.8
HIGH
1031.5
AVERAGE
1030.2
DEVICE